createdAt,value
2022-12-23T00:00:21.934Z,62.45
2022-12-23T00:02:49.809Z,61.87
2022-12-23T00:05:17.915Z,62.10
2022-12-23T00:07:47.027Z,62.24
2022-12-23T00:10:14.866Z,61.59
2022-12-23T00:13:00.239Z,61.79
2022-12-23T00:15:27.944Z,62.14
2022-12-23T00:17:55.810Z,61.67
2022-12-23T00:20:23.698Z,61.85
2022-12-23T00:23:07.905Z,61.87
2022-12-23T00:25:42.322Z,61.94
2022-12-23T00:28:11.675Z,61.73
2022-12-23T00:30:39.699Z,61.59
2022-12-23T00:33:07.461Z,61.90
2022-12-23T00:35:35.254Z,61.71
2022-12-23T00:38:04.387Z,61.87
2022-12-23T00:40:50.108Z,61.35
2022-12-23T00:43:17.848Z,61.49
2022-12-23T00:45:45.764Z,62.00
2022-12-23T00:48:36.341Z,61.58
2022-12-23T00:51:04.077Z,61.40
2022-12-23T00:53:33.164Z,61.64
2022-12-23T00:56:00.892Z,61.50
2022-12-23T00:58:28.801Z,61.64
2022-12-23T01:01:13.936Z,61.50
2022-12-23T01:03:59.079Z,61.74
2022-12-23T01:06:27.016Z,61.60
2022-12-23T01:08:56.095Z,61.64
2022-12-23T01:11:23.733Z,61.73
2022-12-23T01:13:51.475Z,61.70
2022-12-23T01:16:19.186Z,61.70
2022-12-23T01:18:46.976Z,62.03
2022-12-23T01:21:14.741Z,61.82
2022-12-23T01:23:42.426Z,62.09
2022-12-23T01:26:11.791Z,62.51
2022-12-23T01:28:39.529Z,61.73
2022-12-23T01:31:07.352Z,62.12
2022-12-23T01:33:35.108Z,62.15
2022-12-23T01:36:02.858Z,61.92
2022-12-23T01:38:30.822Z,62.34
2022-12-23T01:40:58.498Z,62.37
2022-12-23T01:43:46.094Z,61.79
2022-12-23T01:46:13.804Z,62.13
2022-12-23T01:48:41.835Z,62.28
2022-12-23T01:51:11.512Z,62.22
2022-12-23T01:53:40.059Z,62.64
2022-12-23T01:56:09.175Z,62.24
2022-12-23T01:58:39.139Z,62.44
2022-12-23T02:01:25.703Z,62.45
2022-12-23T02:03:55.701Z,62.17
2022-12-23T02:06:43.859Z,62.20
2022-12-23T02:09:20.682Z,62.32
2022-12-23T02:12:13.234Z,62.63
2022-12-23T02:15:07.951Z,62.29
2022-12-23T02:17:40.531Z,62.33
2022-12-23T02:20:37.321Z,61.90
2022-12-23T02:23:18.190Z,62.62
2022-12-23T02:25:53.760Z,62.27
2022-12-23T02:28:36.814Z,62.08
2022-12-23T02:31:10.464Z,62.28
2022-12-23T02:33:44.618Z,62.67
2022-12-23T02:36:21.773Z,62.19
2022-12-23T02:38:52.938Z,62.61
2022-12-23T02:41:22.178Z,62.60
2022-12-23T02:43:51.180Z,62.54
2022-12-23T02:46:22.067Z,62.62
2022-12-23T02:48:51.731Z,62.42
2022-12-23T02:51:19.460Z,62.75
2022-12-23T02:53:50.171Z,62.85
2022-12-23T02:56:18.388Z,62.22
2022-12-23T02:58:50.172Z,62.68
2022-12-23T03:01:18.165Z,62.07
2022-12-23T03:03:47.461Z,62.31
2022-12-23T03:06:18.867Z,62.40
2022-12-23T03:08:46.625Z,62.43
2022-12-23T03:11:15.249Z,62.36
2022-12-23T03:13:53.961Z,62.53
2022-12-23T03:16:23.828Z,62.21
2022-12-23T03:19:04.352Z,62.65
2022-12-23T03:21:34.483Z,62.37
2022-12-23T03:24:06.915Z,62.71
2022-12-23T03:26:37.828Z,62.19
2022-12-23T03:29:09.048Z,62.59
2022-12-23T03:31:37.010Z,62.28
2022-12-23T03:34:07.741Z,62.67
2022-12-23T03:36:38.133Z,62.54
2022-12-23T03:39:06.559Z,62.72
2022-12-23T03:41:36.160Z,62.28
2022-12-23T03:44:05.435Z,62.51
2022-12-23T03:46:34.593Z,62.73
2022-12-23T03:49:03.594Z,62.57
2022-12-23T03:51:35.013Z,62.80
2022-12-23T03:54:04.551Z,62.50
2022-12-23T03:56:33.371Z,62.68
2022-12-23T03:59:02.253Z,62.67
2022-12-23T04:01:35.203Z,62.26
2022-12-23T04:04:03.691Z,62.68
2022-12-23T04:06:36.406Z,62.70
2022-12-23T04:09:04.368Z,62.95
2022-12-23T04:11:32.135Z,62.46
2022-12-23T04:13:59.999Z,62.54
2022-12-23T04:16:28.126Z,62.37
2022-12-23T04:18:56.249Z,62.88
2022-12-23T04:21:24.085Z,62.94
2022-12-23T04:23:53.373Z,62.95
2022-12-23T04:26:21.225Z,62.87
2022-12-23T04:28:48.970Z,62.95
2022-12-23T04:31:17.111Z,62.52
2022-12-23T04:33:44.781Z,62.42
2022-12-23T04:36:12.618Z,62.88
2022-12-23T04:38:40.441Z,63.26
2022-12-23T04:41:09.642Z,62.89
2022-12-23T04:43:38.397Z,63.33
2022-12-23T04:46:06.350Z,63.54
2022-12-23T04:48:34.574Z,63.31
2022-12-23T04:51:03.216Z,63.37
2022-12-23T04:53:30.937Z,63.34
2022-12-23T04:55:58.761Z,63.46
2022-12-23T04:58:28.046Z,62.85
2022-12-23T05:01:02.702Z,63.03
2022-12-23T05:03:30.633Z,63.29
2022-12-23T05:05:58.394Z,62.97
2022-12-23T05:08:26.468Z,62.87
2022-12-23T05:10:54.259Z,63.14
2022-12-23T05:13:22.343Z,63.27
2022-12-23T05:15:55.216Z,63.15
2022-12-23T05:18:23.197Z,63.43
2022-12-23T05:20:51.312Z,62.91
2022-12-23T05:23:19.239Z,62.93
2022-12-23T05:25:51.650Z,63.12
2022-12-23T05:28:19.529Z,63.02
2022-12-23T05:30:48.137Z,63.18
2022-12-23T05:33:17.599Z,63.14
2022-12-23T05:35:45.362Z,62.53
2022-12-23T05:38:13.038Z,62.90
2022-12-23T05:40:40.758Z,63.04
2022-12-23T05:43:08.790Z,62.95
2022-12-23T05:45:36.640Z,62.93
2022-12-23T05:48:05.576Z,62.76
2022-12-23T05:50:34.636Z,62.51
2022-12-23T05:53:02.296Z,62.83
2022-12-23T05:55:30.125Z,62.60
2022-12-23T05:57:58.108Z,62.71
2022-12-23T06:00:25.888Z,62.80
2022-12-23T06:02:54.523Z,62.65
2022-12-23T06:05:22.583Z,62.70
2022-12-23T06:07:51.732Z,62.71
2022-12-23T06:10:19.533Z,62.60
2022-12-23T06:12:47.244Z,62.46
2022-12-23T06:15:15.592Z,62.09
2022-12-23T06:17:43.339Z,61.93
2022-12-23T06:20:19.703Z,62.19
2022-12-23T06:22:48.355Z,62.43
2022-12-23T06:25:17.650Z,62.01
2022-12-23T06:27:45.669Z,62.56
2022-12-23T06:30:13.785Z,62.21
2022-12-23T06:32:41.615Z,62.19
2022-12-23T06:35:10.130Z,62.33
2022-12-23T06:37:37.929Z,62.59
2022-12-23T06:40:06.715Z,61.94
2022-12-23T06:42:35.823Z,62.33
2022-12-23T06:45:03.586Z,61.86
2022-12-23T06:47:31.311Z,62.32
2022-12-23T06:49:59.009Z,61.91
2022-12-23T06:52:26.787Z,62.16
2022-12-23T06:54:54.556Z,61.57
2022-12-23T06:57:22.424Z,62.29
2022-12-23T06:59:51.486Z,62.37
2022-12-23T07:02:19.304Z,61.88
2022-12-23T07:04:50.006Z,61.71
2022-12-23T07:07:17.878Z,61.81
2022-12-23T07:09:45.637Z,61.46
2022-12-23T07:12:13.262Z,62.01
2022-12-23T07:14:41.063Z,61.93
2022-12-23T07:17:10.337Z,62.28
2022-12-23T07:19:38.153Z,62.02
2022-12-23T07:22:06.033Z,61.87
2022-12-23T07:24:33.869Z,61.80
2022-12-23T07:27:01.571Z,61.94
2022-12-23T07:29:29.302Z,61.83
2022-12-23T07:31:57.119Z,61.78
2022-12-23T07:34:26.546Z,61.56
2022-12-23T07:36:54.291Z,61.36
2022-12-23T07:39:22.089Z,61.47
2022-12-23T07:41:55.547Z,61.39
2022-12-23T07:44:36.979Z,61.37
2022-12-23T07:47:04.868Z,61.13
2022-12-23T07:49:34.534Z,61.53
2022-12-23T07:52:02.370Z,61.57
2022-12-23T07:54:30.178Z,61.66
2022-12-23T07:56:58.151Z,61.39
2022-12-23T07:59:27.563Z,61.20
2022-12-23T08:01:58.191Z,61.09
2022-12-23T08:04:27.191Z,60.62
2022-12-23T08:06:57.672Z,60.72
2022-12-23T08:09:25.688Z,60.88
2022-12-23T08:11:54.188Z,60.10
2022-12-23T08:14:23.098Z,61.10
2022-12-23T08:16:51.014Z,60.85
2022-12-23T08:19:18.990Z,60.50
2022-12-23T08:21:47.063Z,60.94
2022-12-23T08:24:16.524Z,60.51
2022-12-23T08:26:44.436Z,60.50
2022-12-23T08:29:12.249Z,60.62
2022-12-23T08:31:40.366Z,60.95
2022-12-23T08:34:08.056Z,60.52
2022-12-23T08:36:36.236Z,60.59
2022-12-23T08:39:04.838Z,60.38
2022-12-23T08:41:35.237Z,60.50
2022-12-23T08:44:03.129Z,60.29
2022-12-23T08:46:31.006Z,60.27
2022-12-23T08:49:01.824Z,60.18
2022-12-23T08:51:29.735Z,60.15
2022-12-23T08:54:00.410Z,60.55
2022-12-23T08:56:31.790Z,60.16
2022-12-23T08:59:00.930Z,60.21
2022-12-23T09:01:30.208Z,60.40
2022-12-23T09:03:58.385Z,60.69
2022-12-23T09:06:29.913Z,60.37
2022-12-23T09:09:09.855Z,60.43
2022-12-23T09:11:37.677Z,59.96
2022-12-23T09:14:07.272Z,60.47
2022-12-23T09:16:35.175Z,60.54
2022-12-23T09:19:03.085Z,60.29
2022-12-23T09:21:30.964Z,60.39
2022-12-23T09:23:59.154Z,60.73
2022-12-23T09:26:31.508Z,60.78
2022-12-23T09:28:59.788Z,60.54
2022-12-23T09:31:36.229Z,60.43
2022-12-23T09:34:05.573Z,60.95
2022-12-23T09:36:33.799Z,60.53
2022-12-23T09:39:01.675Z,61.00
2022-12-23T09:41:43.517Z,60.88
2022-12-23T09:44:19.769Z,60.65
2022-12-23T09:46:51.677Z,60.92
2022-12-23T09:49:19.681Z,60.27
2022-12-23T09:51:47.456Z,60.58
2022-12-23T09:54:17.744Z,60.42
2022-12-23T09:56:49.003Z,60.30
2022-12-23T09:59:24.605Z,60.12
2022-12-23T10:01:57.391Z,59.94
2022-12-23T10:04:37.908Z,59.79
2022-12-23T10:07:18.306Z,59.61
2022-12-23T10:09:49.887Z,59.71
2022-12-23T10:12:25.546Z,59.78
2022-12-23T10:14:57.164Z,59.51
2022-12-23T10:17:30.160Z,59.33
2022-12-23T10:19:59.473Z,59.54
2022-12-23T10:22:29.389Z,58.99
2022-12-23T10:24:57.259Z,59.24
2022-12-23T10:27:26.558Z,58.77
2022-12-23T10:29:54.390Z,58.95
2022-12-23T10:32:24.647Z,59.59
2022-12-23T10:35:00.696Z,59.25
2022-12-23T10:37:30.816Z,59.19
2022-12-23T10:40:03.839Z,59.65
2022-12-23T10:42:34.977Z,59.60
2022-12-23T10:45:11.693Z,59.80
2022-12-23T10:47:46.709Z,59.92
2022-12-23T10:50:27.786Z,59.29
2022-12-23T10:52:55.930Z,59.83
2022-12-23T10:55:32.965Z,59.68
2022-12-23T10:58:10.199Z,59.17
2022-12-23T11:00:39.330Z,59.26
2022-12-23T11:03:13.132Z,59.63
2022-12-23T11:05:42.535Z,59.58
2022-12-23T11:08:10.404Z,58.68
2022-12-23T11:10:38.439Z,59.25
2022-12-23T11:13:06.407Z,58.91
2022-12-23T11:15:35.350Z,59.12
2022-12-23T11:18:05.555Z,58.85
2022-12-23T11:20:33.583Z,59.13
2022-12-23T11:23:03.930Z,59.10
2022-12-23T11:25:34.324Z,59.43
2022-12-23T11:28:04.407Z,59.28
2022-12-23T11:30:33.258Z,59.28
2022-12-23T11:35:30.358Z,59.43
2022-12-23T11:37:58.233Z,59.15
2022-12-23T11:40:29.023Z,59.28
2022-12-23T11:43:00.566Z,58.92
2022-12-23T11:45:29.387Z,59.05
2022-12-23T11:47:57.193Z,59.33
2022-12-23T11:50:35.341Z,58.62
2022-12-23T11:53:10.857Z,59.09
2022-12-23T11:55:44.265Z,58.64
2022-12-23T11:58:16.721Z,58.37
2022-12-23T12:00:47.180Z,58.55
2022-12-23T12:03:18.372Z,58.88
2022-12-23T12:05:48.569Z,58.81
2022-12-23T12:08:17.121Z,58.57
2022-12-23T12:10:46.515Z,58.40
2022-12-23T12:13:24.585Z,58.57
2022-12-23T12:15:55.616Z,58.85
2022-12-23T12:18:23.246Z,58.09
2022-12-23T12:20:52.559Z,58.49
2022-12-23T12:23:23.265Z,58.18
2022-12-23T12:25:56.551Z,58.45
2022-12-23T12:28:25.325Z,58.51
2022-12-23T12:30:56.228Z,58.19
2022-12-23T12:33:28.540Z,58.26
2022-12-23T12:36:04.937Z,58.36
2022-12-23T12:38:33.166Z,58.13
2022-12-23T12:41:06.299Z,58.22
2022-12-23T12:43:35.407Z,58.07
2022-12-23T12:46:09.749Z,58.51
2022-12-23T12:48:43.108Z,58.32
2022-12-23T12:51:17.317Z,58.08
2022-12-23T12:53:56.207Z,57.69
2022-12-23T12:56:29.455Z,57.67
2022-12-23T12:58:59.147Z,57.83
2022-12-23T13:01:39.036Z,58.10
2022-12-23T13:04:18.995Z,58.43
2022-12-23T13:06:49.433Z,57.88
2022-12-23T13:09:21.840Z,58.58
2022-12-23T13:11:59.193Z,59.21
2022-12-23T13:14:30.076Z,58.73
2022-12-23T13:17:01.949Z,58.93
2022-12-23T13:19:33.825Z,59.59
2022-12-23T13:22:04.052Z,59.34
2022-12-23T13:24:33.732Z,59.10
2022-12-23T13:27:06.813Z,59.79
2022-12-23T13:29:44.170Z,59.80
2022-12-23T13:32:18.819Z,60.44
2022-12-23T13:34:50.192Z,60.00
2022-12-23T13:37:23.462Z,60.33
2022-12-23T13:39:55.495Z,60.28
2022-12-23T13:42:28.425Z,59.75
2022-12-23T13:44:56.178Z,59.73
2022-12-23T13:47:25.803Z,60.56
2022-12-23T13:49:58.663Z,61.12
2022-12-23T13:52:33.076Z,61.05
2022-12-23T13:55:04.139Z,61.22
2022-12-23T13:57:44.682Z,61.38
2022-12-23T14:00:25.359Z,62.22
2022-12-23T14:02:53.503Z,62.81
2022-12-23T14:05:32.550Z,62.74
2022-12-23T14:08:00.402Z,63.05
2022-12-23T14:10:29.041Z,62.99
2022-12-23T14:13:02.813Z,63.46
2022-12-23T14:15:43.920Z,63.82
2022-12-23T14:18:19.015Z,63.65
2022-12-23T14:20:50.235Z,63.17
2022-12-23T14:23:25.845Z,63.90
2022-12-23T14:25:58.949Z,63.57
2022-12-23T14:28:35.578Z,63.73
2022-12-23T14:31:04.946Z,63.91
2022-12-23T14:33:34.380Z,64.29
2022-12-23T14:36:15.481Z,64.45
2022-12-23T14:38:43.246Z,64.25
2022-12-23T14:41:26.430Z,64.53
2022-12-23T14:43:59.723Z,64.75
2022-12-23T14:46:58.631Z,64.48
2022-12-23T14:49:47.440Z,64.13
2022-12-23T14:52:49.071Z,64.52
2022-12-23T14:55:45.739Z,64.29
2022-12-23T14:58:30.277Z,64.59
2022-12-23T15:01:02.799Z,64.53
2022-12-23T15:03:32.796Z,64.55
2022-12-23T15:06:00.539Z,64.95
2022-12-23T15:08:30.390Z,65.02
2022-12-23T15:10:57.962Z,65.65
2022-12-23T15:13:26.187Z,65.77
2022-12-23T15:16:00.682Z,65.99
2022-12-23T15:18:30.223Z,65.42
2022-12-23T15:21:02.117Z,65.96
2022-12-23T15:23:29.767Z,65.57
2022-12-23T15:25:58.925Z,66.28
2022-12-23T15:28:35.817Z,65.88
2022-12-23T15:31:03.455Z,65.73
2022-12-23T15:34:02.404Z,65.81
2022-12-23T15:36:27.835Z,65.60
2022-12-23T15:38:55.503Z,65.65
2022-12-23T15:41:23.281Z,66.30
2022-12-23T15:43:50.880Z,66.31
2022-12-23T15:46:25.172Z,65.94
2022-12-23T15:48:58.536Z,66.47
2022-12-23T15:52:05.135Z,66.56
2022-12-23T15:54:21.856Z,65.98
2022-12-23T15:56:50.442Z,66.05
2022-12-23T15:59:21.666Z,66.21
2022-12-23T16:01:49.418Z,66.17
2022-12-23T16:04:21.159Z,66.11
2022-12-23T16:06:49.864Z,65.99
2022-12-23T16:09:35.469Z,66.09
2022-12-23T16:12:04.011Z,65.78
2022-12-23T16:14:34.736Z,65.81
2022-12-23T16:17:02.882Z,65.58
2022-12-23T16:19:42.130Z,65.74
2022-12-23T16:22:15.483Z,65.44
2022-12-23T16:24:47.234Z,65.97
2022-12-23T16:27:15.611Z,65.71
2022-12-23T16:29:43.214Z,65.86
2022-12-23T16:32:15.073Z,65.56
2022-12-23T16:34:44.087Z,65.57
2022-12-23T16:37:11.923Z,65.79
2022-12-23T16:39:40.455Z,65.83
2022-12-23T16:42:08.123Z,65.98
2022-12-23T16:44:37.809Z,65.88
2022-12-23T16:47:07.033Z,65.57
2022-12-23T16:49:35.675Z,65.39
2022-12-23T16:52:08.320Z,65.55
2022-12-23T16:54:35.954Z,65.75
2022-12-23T16:57:03.514Z,65.27
2022-12-23T16:59:32.226Z,65.34
2022-12-23T17:02:03.676Z,65.36
2022-12-23T17:04:31.790Z,65.35
2022-12-23T17:06:59.375Z,65.31
2022-12-23T17:09:28.499Z,65.46
2022-12-23T17:11:56.251Z,65.24
2022-12-23T17:14:24.614Z,65.52
2022-12-23T17:16:52.449Z,65.24
2022-12-23T17:19:27.892Z,64.84
2022-12-23T17:21:58.719Z,64.98
2022-12-23T17:24:28.172Z,65.00
2022-12-23T17:26:56.611Z,64.59
2022-12-23T17:29:24.545Z,64.86
2022-12-23T17:34:20.843Z,64.99
2022-12-23T17:36:50.562Z,64.80
2022-12-23T17:39:18.647Z,65.55
2022-12-23T17:41:47.736Z,65.77
2022-12-23T17:44:15.907Z,64.73
2022-12-23T17:46:43.696Z,64.20
2022-12-23T17:49:11.727Z,63.90
2022-12-23T17:51:39.560Z,63.74
2022-12-23T17:54:07.320Z,63.71
2022-12-23T17:56:35.000Z,63.70
2022-12-23T17:59:04.144Z,63.35
2022-12-23T18:01:32.589Z,63.60
2022-12-23T18:04:01.227Z,63.57
2022-12-23T18:06:29.432Z,63.36
2022-12-23T18:08:57.863Z,63.34
2022-12-23T18:11:28.594Z,63.27
2022-12-23T18:13:57.925Z,62.88
2022-12-23T18:16:27.266Z,63.24
2022-12-23T18:18:55.032Z,63.04
2022-12-23T18:21:23.900Z,62.40
2022-12-23T18:23:51.634Z,62.96
2022-12-23T18:26:20.298Z,62.67
2022-12-23T18:28:47.965Z,62.70
2022-12-23T18:31:20.081Z,62.11
2022-12-23T18:33:49.164Z,62.25
2022-12-23T18:36:22.301Z,62.06
2022-12-23T18:38:49.919Z,61.89
2022-12-23T18:41:17.713Z,62.09
2022-12-23T18:43:46.520Z,62.10
2022-12-23T18:46:14.202Z,61.82
2022-12-23T18:48:42.092Z,61.58
2022-12-23T18:51:13.222Z,61.81
2022-12-23T18:53:41.606Z,61.15
2022-12-23T18:56:12.294Z,61.03
2022-12-23T18:58:39.857Z,61.28
2022-12-23T19:01:11.207Z,61.44
2022-12-23T19:03:38.879Z,61.28
2022-12-23T19:06:07.309Z,61.35
2022-12-23T19:08:37.089Z,61.13
2022-12-23T19:11:10.763Z,60.80
2022-12-23T19:13:38.337Z,60.98
2022-12-23T19:16:06.380Z,60.82
2022-12-23T19:18:34.059Z,61.02
2022-12-23T19:21:04.267Z,60.47
2022-12-23T19:23:31.882Z,60.77
2022-12-23T19:26:00.930Z,60.55
2022-12-23T19:28:28.511Z,60.92
2022-12-23T19:30:56.476Z,60.67
2022-12-23T19:33:24.324Z,61.19
2022-12-23T19:35:55.162Z,60.88
2022-12-23T19:38:22.742Z,60.65
2022-12-23T19:40:57.315Z,60.71
2022-12-23T19:43:26.349Z,60.94
2022-12-23T19:45:58.238Z,60.64
2022-12-23T19:48:25.884Z,61.11
2022-12-23T19:50:58.161Z,60.94
2022-12-23T19:53:25.979Z,60.43
2022-12-23T19:55:59.190Z,60.61
2022-12-23T19:58:28.490Z,60.70
2022-12-23T20:01:05.829Z,60.29
2022-12-23T20:03:33.457Z,60.55
2022-12-23T20:06:01.085Z,60.19
2022-12-23T20:08:28.821Z,60.30
2022-12-23T20:11:04.384Z,59.60
2022-12-23T20:13:33.335Z,60.23
2022-12-23T20:16:01.137Z,59.72
2022-12-23T20:18:28.754Z,59.63
2022-12-23T20:20:57.573Z,59.42
2022-12-23T20:23:25.241Z,60.04
2022-12-23T20:25:52.959Z,59.86
2022-12-23T20:28:20.578Z,59.37
2022-12-23T20:30:49.695Z,59.25
2022-12-23T20:33:18.466Z,59.22
2022-12-23T20:35:46.040Z,59.15
2022-12-23T20:38:14.713Z,59.65
2022-12-23T20:40:42.287Z,59.39
2022-12-23T20:43:15.090Z,59.39
2022-12-23T20:45:43.068Z,59.66
2022-12-23T20:48:12.044Z,59.48
2022-12-23T20:50:40.590Z,58.83
2022-12-23T20:53:08.913Z,59.30
2022-12-23T20:55:36.545Z,59.51
2022-12-23T21:00:57.616Z,59.46
2022-12-23T21:03:25.277Z,59.16
2022-12-23T21:05:57.216Z,59.87
2022-12-23T21:08:24.821Z,59.24
2022-12-23T21:10:53.467Z,59.19
2022-12-23T21:13:21.028Z,59.59
2022-12-23T21:15:48.676Z,59.22
2022-12-23T21:18:17.597Z,59.31
2022-12-23T21:20:45.460Z,59.29
2022-12-23T21:23:13.015Z,59.31
2022-12-23T21:25:40.669Z,58.95
2022-12-23T21:28:08.276Z,59.05
2022-12-23T21:30:36.079Z,58.90
2022-12-23T21:33:03.680Z,58.81
2022-12-23T21:35:32.754Z,59.58
2022-12-23T21:38:00.509Z,59.25
2022-12-23T21:40:28.164Z,59.25
2022-12-23T21:42:55.761Z,59.57
2022-12-23T21:45:23.376Z,59.22
2022-12-23T21:47:50.946Z,59.51
2022-12-23T21:50:18.701Z,59.75
2022-12-23T21:52:47.647Z,59.28
2022-12-23T21:55:17.515Z,59.46
2022-12-23T21:57:45.195Z,59.32
2022-12-23T22:00:13.347Z,59.90
2022-12-23T22:02:41.047Z,59.32
2022-12-23T22:05:09.457Z,58.95
2022-12-23T22:07:37.026Z,59.55
2022-12-23T22:10:07.294Z,59.16
2022-12-23T22:12:34.881Z,59.19
2022-12-23T22:15:09.530Z,58.71
2022-12-23T22:17:39.008Z,59.21
2022-12-23T22:20:08.045Z,59.60
2022-12-23T22:22:35.669Z,59.03
2022-12-23T22:25:03.386Z,59.17
2022-12-23T22:27:32.310Z,59.33
2022-12-23T22:30:00.091Z,59.28
2022-12-23T22:32:27.684Z,58.88
2022-12-23T22:34:55.343Z,58.83
2022-12-23T22:37:22.984Z,59.30
2022-12-23T22:39:50.688Z,59.53
2022-12-23T22:42:18.245Z,59.79
2022-12-23T22:44:47.244Z,59.35
2022-12-23T22:47:15.069Z,59.68
2022-12-23T22:49:42.846Z,59.34
2022-12-23T22:52:10.617Z,59.16
2022-12-23T22:54:38.408Z,58.91
2022-12-23T22:57:06.118Z,59.18
2022-12-23T22:59:33.775Z,58.85
2022-12-23T23:02:02.975Z,58.80
2022-12-23T23:04:30.664Z,58.60
2022-12-23T23:06:58.319Z,59.17
2022-12-23T23:09:25.899Z,58.37
2022-12-23T23:11:53.555Z,58.45
2022-12-23T23:14:21.323Z,59.04
2022-12-23T23:16:49.301Z,58.99
2022-12-23T23:19:20.254Z,58.84
2022-12-23T23:21:48.754Z,58.27
2022-12-23T23:24:16.368Z,58.30
2022-12-23T23:26:44.020Z,58.09
2022-12-23T23:29:11.566Z,57.95
2022-12-23T23:31:42.425Z,58.14
2022-12-23T23:34:12.198Z,58.00
2022-12-23T23:36:42.644Z,57.99
2022-12-23T23:39:12.574Z,58.13
2022-12-23T23:41:41.200Z,58.04
2022-12-23T23:44:09.568Z,58.02
2022-12-23T23:46:37.705Z,57.89
2022-12-23T23:49:05.562Z,57.68
2022-12-23T23:51:33.414Z,57.22
2022-12-23T23:54:02.613Z,57.06
2022-12-23T23:56:37.589Z,57.48
2022-12-23T23:59:06.342Z,57.51
